createdAt,value
2018-03-08T00:00:25.962Z,182.63
2018-03-08T00:02:53.451Z,176.10
2018-03-08T00:05:20.942Z,169.73
2018-03-08T00:07:48.481Z,173.00
2018-03-08T00:10:16.013Z,180.37
2018-03-08T00:12:43.517Z,183.57
2018-03-08T00:15:11.053Z,179.00
2018-03-08T00:17:38.605Z,182.80
2018-03-08T00:20:06.213Z,169.03
2018-03-08T00:22:33.725Z,158.77
2018-03-08T00:25:01.228Z,159.63
2018-03-08T00:27:29.703Z,147.83
2018-03-08T00:29:57.216Z,146.23
2018-03-08T00:32:24.821Z,138.63
2018-03-08T00:34:52.376Z,131.37
2018-03-08T00:37:19.914Z,127.33
2018-03-08T00:39:47.434Z,110.33
2018-03-08T00:42:14.952Z,120.07
2018-03-08T00:44:42.519Z,109.37
2018-03-08T00:47:10.120Z,103.03
2018-03-08T00:49:37.648Z,98.60
2018-03-08T00:52:05.189Z,102.03
2018-03-08T00:54:32.705Z,94.50
2018-03-08T00:57:00.274Z,90.97
2018-03-08T00:59:27.870Z,87.30
2018-03-08T01:01:55.393Z,85.20
2018-03-08T01:04:22.940Z,81.87
2018-03-08T01:15:21.188Z,52.57
2018-03-08T01:17:48.733Z,51.83
2018-03-08T01:20:16.238Z,48.57
2018-03-08T01:22:43.839Z,37.50
2018-03-08T01:25:11.385Z,31.67
2018-03-08T01:27:38.903Z,29.13
2018-03-08T01:30:06.566Z,32.37
2018-03-08T01:32:34.097Z,24.33
2018-03-08T01:35:01.620Z,23.50
2018-03-08T01:37:29.219Z,19.87
2018-03-08T01:39:56.730Z,20.87
2018-03-08T01:42:24.587Z,21.20
2018-03-08T01:44:52.113Z,16.07
2018-03-08T01:47:19.607Z,18.13
2018-03-08T01:49:47.124Z,18.80
2018-03-08T01:52:14.627Z,17.87
2018-03-08T01:54:42.151Z,18.57
2018-03-08T01:57:09.731Z,16.47
2018-03-08T01:59:37.234Z,21.97
2018-03-08T02:02:05.101Z,18.00
2018-03-08T02:04:32.595Z,18.83
2018-03-08T02:07:00.291Z,19.97
2018-03-08T02:09:27.800Z,19.93
2018-03-08T02:11:55.287Z,17.17
2018-03-08T02:14:22.823Z,18.70
2018-03-08T02:16:50.324Z,18.83
2018-03-08T02:19:17.818Z,17.70
2018-03-08T02:21:45.345Z,18.60
2018-03-08T02:24:12.923Z,20.43
2018-03-08T02:26:40.509Z,16.80
2018-03-08T02:29:08.118Z,18.67
2018-03-08T02:31:35.632Z,17.80
2018-03-08T02:34:03.180Z,16.97
2018-03-08T02:36:30.759Z,17.50
2018-03-08T02:38:58.276Z,17.77
2018-03-08T02:41:25.812Z,16.93
2018-03-08T02:43:53.337Z,17.83
2018-03-08T02:46:20.954Z,16.17
2018-03-08T02:48:48.504Z,15.63
2018-03-08T02:51:16.000Z,14.43
2018-03-08T02:53:43.526Z,16.23
2018-03-08T02:56:11.080Z,16.33
2018-03-08T02:58:38.603Z,18.93
2018-03-08T03:01:06.339Z,17.73
2018-03-08T03:03:33.885Z,19.43
2018-03-08T03:06:01.397Z,16.80
2018-03-08T03:08:28.896Z,16.47
2018-03-08T03:10:56.408Z,18.90
2018-03-08T03:13:23.913Z,18.30
2018-03-08T03:15:51.426Z,21.37
2018-03-08T03:18:18.992Z,19.93
2018-03-08T03:20:46.535Z,20.23
2018-03-08T03:23:14.108Z,18.40
2018-03-08T03:25:41.613Z,23.37
2018-03-08T03:28:09.184Z,17.70
2018-03-08T03:30:36.694Z,19.63
2018-03-08T03:33:04.269Z,19.40
2018-03-08T03:35:31.893Z,19.13
2018-03-08T03:37:59.434Z,18.07
2018-03-08T03:40:26.909Z,17.70
2018-03-08T03:42:54.497Z,19.37
2018-03-08T03:45:22.015Z,16.80
2018-03-08T03:47:49.529Z,17.83
2018-03-08T03:50:17.023Z,17.87
2018-03-08T03:52:44.518Z,17.57
2018-03-08T03:55:12.010Z,20.37
2018-03-08T03:57:39.525Z,18.13
2018-03-08T04:00:07.144Z,17.87
2018-03-08T04:02:34.700Z,21.23
2018-03-08T04:05:02.230Z,19.20
2018-03-08T04:07:29.738Z,21.03
2018-03-08T04:09:57.224Z,20.30
2018-03-08T04:12:24.717Z,21.07
2018-03-08T04:14:52.190Z,22.43
2018-03-08T04:17:19.690Z,21.60
2018-03-08T04:19:47.255Z,20.00
2018-03-08T04:22:14.833Z,22.57
2018-03-08T04:24:42.342Z,20.37
2018-03-08T04:27:09.900Z,21.73
2018-03-08T04:29:37.524Z,20.37
2018-03-08T04:32:05.046Z,21.23
2018-03-08T04:34:32.624Z,20.93
2018-03-08T04:37:00.219Z,21.33
2018-03-08T04:39:27.782Z,21.87
2018-03-08T04:41:55.304Z,22.37
2018-03-08T04:44:22.849Z,20.90
2018-03-08T04:46:50.359Z,21.23
2018-03-08T04:49:17.886Z,21.83
2018-03-08T04:51:45.381Z,20.07
2018-03-08T04:54:12.893Z,16.70
2018-03-08T04:56:40.386Z,17.33
2018-03-08T04:59:07.926Z,15.40
2018-03-08T05:01:35.432Z,14.27
2018-03-08T05:04:02.991Z,12.03
2018-03-08T05:06:30.484Z,12.07
2018-03-08T05:08:57.996Z,12.17
2018-03-08T05:11:25.689Z,13.50
2018-03-08T05:13:53.228Z,12.07
2018-03-08T05:16:20.751Z,14.33
2018-03-08T05:18:48.265Z,13.27
2018-03-08T05:21:15.907Z,14.63
2018-03-08T05:23:43.517Z,15.43
2018-03-08T05:26:11.056Z,14.27
2018-03-08T05:28:38.633Z,15.90
2018-03-08T05:31:06.389Z,16.13
2018-03-08T05:33:33.948Z,17.17
2018-03-08T05:36:01.518Z,20.83
2018-03-08T05:38:29.022Z,14.90
2018-03-08T05:40:56.522Z,15.90
2018-03-08T05:43:24.053Z,16.17
2018-03-08T05:45:51.568Z,18.93
2018-03-08T05:48:19.073Z,12.47
2018-03-08T05:50:46.565Z,16.07
2018-03-08T05:53:14.088Z,12.10
2018-03-08T05:55:41.629Z,13.40
2018-03-08T05:58:09.163Z,12.03
2018-03-08T06:00:36.671Z,17.70
2018-03-08T06:03:04.201Z,14.60
2018-03-08T06:05:31.741Z,19.50
2018-03-08T06:08:00.332Z,18.13
2018-03-08T06:10:27.965Z,18.23
2018-03-08T06:12:55.488Z,18.37
2018-03-08T06:15:23.092Z,17.03
2018-03-08T06:17:50.590Z,18.63
2018-03-08T06:20:18.220Z,22.30
2018-03-08T06:22:45.707Z,20.60
2018-03-08T06:25:13.227Z,22.93
2018-03-08T06:27:40.748Z,28.20
2018-03-08T06:30:08.270Z,22.47
2018-03-08T06:32:35.822Z,27.67
2018-03-08T06:35:03.328Z,28.03
2018-03-08T06:37:30.846Z,29.30
2018-03-08T06:39:58.367Z,31.70
2018-03-08T06:42:25.927Z,31.17
2018-03-08T06:44:53.500Z,32.47
2018-03-08T06:47:21.016Z,30.23
2018-03-08T06:49:49.049Z,30.80
2018-03-08T06:52:16.882Z,29.13
2018-03-08T06:54:44.579Z,33.87
2018-03-08T06:57:12.070Z,40.67
2018-03-08T06:59:39.625Z,36.57
2018-03-08T07:02:07.181Z,36.27
2018-03-08T07:04:34.784Z,42.00
2018-03-08T07:07:02.344Z,45.50
2018-03-08T07:09:29.904Z,45.80
2018-03-08T07:11:57.385Z,50.17
2018-03-08T07:14:24.968Z,52.43
2018-03-08T07:16:52.487Z,49.90
2018-03-08T07:19:20.051Z,55.97
2018-03-08T07:21:47.682Z,53.90
2018-03-08T07:24:15.286Z,49.50
2018-03-08T07:26:42.849Z,60.70
2018-03-08T07:29:10.369Z,55.00
2018-03-08T07:31:37.930Z,57.63
2018-03-08T07:34:05.455Z,58.27
2018-03-08T07:36:32.986Z,61.83
2018-03-08T07:39:00.576Z,57.67
2018-03-08T07:41:28.110Z,60.43
2018-03-08T07:43:55.620Z,53.97
2018-03-08T07:46:23.122Z,57.83
2018-03-08T07:48:50.658Z,60.37
2018-03-08T07:51:18.164Z,63.20
2018-03-08T07:53:45.681Z,61.40
2018-03-08T07:56:13.162Z,61.83
2018-03-08T07:58:40.706Z,56.80
2018-03-08T08:01:08.259Z,55.87
2018-03-08T08:03:35.774Z,57.10
2018-03-08T08:06:15.074Z,58.43
2018-03-08T08:09:07.203Z,59.70
2018-03-08T08:11:34.706Z,53.03
2018-03-08T08:14:02.232Z,50.33
2018-03-08T08:16:29.724Z,54.33
2018-03-08T08:18:57.212Z,51.77
2018-03-08T08:21:24.743Z,55.97
2018-03-08T08:23:52.234Z,50.90
2018-03-08T08:26:19.729Z,53.10
2018-03-08T08:28:48.396Z,56.40
2018-03-08T08:31:16.060Z,50.53
2018-03-08T08:33:43.581Z,53.80
2018-03-08T08:36:11.055Z,52.13
2018-03-08T08:38:38.526Z,47.10
2018-03-08T08:41:06.026Z,47.37
2018-03-08T08:43:33.531Z,47.70
2018-03-08T08:46:01.067Z,44.67
2018-03-08T08:48:28.574Z,39.53
2018-03-08T08:50:56.087Z,39.40
2018-03-08T08:53:23.566Z,35.53
2018-03-08T08:55:51.079Z,33.83
2018-03-08T08:58:18.602Z,36.30
2018-03-08T09:00:46.176Z,34.70
2018-03-08T09:03:13.699Z,32.10
2018-03-08T09:05:41.231Z,28.00
2018-03-08T09:08:08.794Z,33.93
2018-03-08T09:10:36.284Z,28.33
2018-03-08T09:13:03.815Z,26.37
2018-03-08T09:15:31.319Z,32.37
2018-03-08T09:17:58.837Z,25.90
2018-03-08T09:20:26.329Z,24.33
2018-03-08T09:22:53.843Z,25.40
2018-03-08T09:25:21.346Z,22.10
2018-03-08T09:27:48.936Z,24.10
2018-03-08T09:30:16.438Z,22.40
2018-03-08T09:32:43.914Z,22.10
2018-03-08T09:35:11.410Z,28.93
2018-03-08T09:37:38.932Z,23.80
2018-03-08T09:40:06.596Z,25.80
2018-03-08T09:42:34.079Z,23.90
2018-03-08T09:45:01.584Z,20.73
2018-03-08T09:47:29.073Z,18.07
2018-03-08T09:49:56.583Z,27.83
2018-03-08T09:52:24.090Z,15.30
2018-03-08T09:54:51.578Z,21.03
2018-03-08T09:57:19.097Z,23.47
2018-03-08T09:59:46.619Z,14.80
2018-03-08T10:02:14.143Z,18.57
2018-03-08T10:04:41.650Z,15.07
2018-03-08T10:07:09.173Z,17.00
2018-03-08T10:09:36.668Z,15.67
2018-03-08T10:12:04.182Z,18.87
2018-03-08T10:14:31.710Z,14.27
2018-03-08T10:16:59.232Z,18.27
2018-03-08T10:19:26.809Z,14.20
2018-03-08T10:21:54.313Z,13.90
2018-03-08T10:24:21.808Z,16.90
2018-03-08T10:26:49.307Z,15.03
2018-03-08T10:29:16.793Z,11.57
2018-03-08T10:31:44.282Z,12.60
2018-03-08T10:34:11.783Z,14.53
2018-03-08T10:36:39.256Z,14.73
2018-03-08T10:44:01.917Z,14.77
2018-03-08T10:46:29.404Z,9.40
2018-03-08T10:51:24.454Z,13.37
2018-03-08T10:53:51.949Z,10.93
2018-03-08T10:56:19.437Z,10.23
2018-03-08T10:58:47.007Z,8.17
2018-03-08T11:01:20.112Z,12.27
2018-03-08T11:03:48.588Z,13.83
2018-03-08T11:06:20.949Z,9.27
2018-03-08T11:08:48.623Z,8.07
2018-03-08T11:11:16.242Z,8.33
2018-03-08T11:13:43.711Z,7.73
2018-03-08T11:16:11.220Z,12.27
2018-03-08T11:18:38.729Z,9.47
2018-03-08T11:21:06.218Z,7.63
2018-03-08T11:23:33.777Z,10.43
2018-03-08T11:26:01.582Z,7.47
2018-03-08T11:28:29.342Z,8.37
2018-03-08T11:30:56.856Z,9.53
2018-03-08T11:33:24.479Z,8.93
2018-03-08T11:35:52.060Z,8.63
2018-03-08T11:38:19.561Z,10.43
2018-03-08T11:40:47.069Z,12.43
2018-03-08T11:43:14.585Z,12.13
2018-03-08T11:45:42.074Z,10.67
2018-03-08T11:48:10.630Z,8.97
2018-03-08T11:50:37.157Z,7.07
2018-03-08T11:53:04.654Z,6.97
2018-03-08T11:55:32.195Z,6.90
2018-03-08T11:57:59.714Z,11.43
2018-03-08T12:00:27.214Z,8.20
2018-03-08T12:02:54.723Z,9.03
2018-03-08T12:05:22.204Z,6.00
2018-03-08T12:07:49.996Z,8.73
2018-03-08T12:10:17.584Z,5.10
2018-03-08T12:12:45.120Z,8.27
2018-03-08T12:15:12.788Z,8.50
2018-03-08T12:17:40.336Z,10.73
2018-03-08T12:20:07.911Z,6.07
2018-03-08T12:22:35.426Z,5.40
2018-03-08T12:25:02.951Z,4.47
2018-03-08T12:27:30.458Z,8.30
2018-03-08T12:29:57.975Z,8.90
2018-03-08T12:32:25.513Z,7.37
2018-03-08T12:34:53.016Z,5.93
2018-03-08T12:37:20.571Z,4.40
2018-03-08T12:39:48.070Z,7.83
2018-03-08T12:42:15.582Z,7.53
2018-03-08T12:44:43.075Z,7.80
2018-03-08T12:47:10.590Z,9.43
2018-03-08T12:49:38.102Z,7.23
2018-03-08T12:52:05.589Z,9.03
2018-03-08T12:54:33.132Z,6.50
2018-03-08T12:57:00.628Z,7.17
2018-03-08T12:59:28.159Z,9.33
2018-03-08T13:01:55.680Z,5.73
2018-03-08T13:04:23.219Z,6.53
2018-03-08T13:06:50.723Z,7.27
2018-03-08T13:09:18.232Z,7.00
2018-03-08T13:11:45.780Z,9.73
2018-03-08T13:14:13.325Z,6.70
2018-03-08T13:16:40.833Z,12.63
2018-03-08T13:19:08.349Z,7.23
2018-03-08T13:21:35.830Z,9.47
2018-03-08T13:24:03.406Z,8.67
2018-03-08T13:26:30.979Z,10.07
2018-03-08T13:28:58.489Z,8.50
2018-03-08T13:31:26.002Z,7.33
2018-03-08T13:33:53.509Z,7.80
2018-03-08T13:36:21.012Z,8.20
2018-03-08T13:38:48.526Z,7.93
2018-03-08T13:41:16.184Z,14.03
2018-03-08T13:43:43.724Z,8.43
2018-03-08T13:46:11.224Z,11.23
2018-03-08T13:48:38.742Z,7.93
2018-03-08T13:51:06.249Z,8.50
2018-03-08T13:53:33.788Z,10.50
2018-03-08T13:56:01.384Z,7.10
2018-03-08T13:58:28.926Z,7.10
2018-03-08T14:00:56.450Z,8.87
2018-03-08T14:03:24.217Z,5.73
2018-03-08T14:05:51.762Z,6.47
2018-03-08T14:08:19.370Z,7.70
2018-03-08T14:10:46.937Z,8.00
2018-03-08T14:13:14.560Z,6.10
2018-03-08T14:15:42.072Z,5.90
2018-03-08T14:18:09.578Z,5.97
2018-03-08T14:20:37.064Z,6.57
2018-03-08T14:23:04.614Z,6.43
2018-03-08T14:25:32.493Z,6.73
2018-03-08T14:27:59.966Z,7.37
2018-03-08T14:30:27.472Z,7.93
2018-03-08T14:32:55.858Z,5.20
2018-03-08T14:35:23.462Z,5.77
2018-03-08T14:37:51.250Z,5.90
2018-03-08T14:40:18.743Z,6.67
2018-03-08T14:42:46.247Z,8.00
2018-03-08T14:45:13.757Z,5.80
2018-03-08T14:47:41.260Z,3.83
2018-03-08T14:50:08.839Z,5.73
2018-03-08T14:52:36.376Z,3.53
2018-03-08T14:55:03.867Z,5.30
2018-03-08T14:57:31.725Z,8.77
2018-03-08T14:59:59.239Z,6.37
2018-03-08T15:02:26.798Z,6.47
2018-03-08T15:04:54.356Z,7.30
2018-03-08T15:07:21.829Z,4.33
2018-03-08T15:09:49.310Z,7.83
2018-03-08T15:12:16.911Z,4.87
2018-03-08T15:14:44.397Z,4.53
2018-03-08T15:17:12.188Z,4.20
2018-03-08T15:19:39.670Z,6.43
2018-03-08T15:22:07.174Z,8.57
2018-03-08T15:24:34.660Z,7.13
2018-03-08T15:27:02.138Z,4.80
2018-03-08T15:29:29.635Z,8.43
2018-03-08T15:31:57.135Z,6.53
2018-03-08T15:34:24.687Z,13.93
2018-03-08T15:36:52.199Z,7.07
2018-03-08T15:39:19.709Z,6.40
2018-03-08T15:41:47.189Z,7.03
2018-03-08T15:44:14.726Z,9.77
2018-03-08T15:46:42.234Z,6.13
2018-03-08T15:49:09.733Z,7.90
2018-03-08T15:51:37.221Z,8.67
2018-03-08T15:54:04.688Z,9.27
2018-03-08T15:56:32.230Z,4.97
2018-03-08T15:58:59.779Z,6.43
2018-03-08T16:01:27.276Z,8.87
2018-03-08T16:03:54.770Z,9.03
2018-03-08T16:09:38.610Z,6.47
2018-03-08T16:12:06.119Z,6.67
2018-03-08T16:14:33.607Z,10.40
2018-03-08T16:17:01.086Z,7.30
2018-03-08T16:19:28.620Z,8.80
2018-03-08T16:21:56.114Z,7.60
2018-03-08T16:24:23.624Z,7.07
2018-03-08T16:26:51.189Z,8.10
2018-03-08T16:29:18.788Z,8.27
2018-03-08T16:31:46.209Z,6.43
2018-03-08T16:34:13.713Z,9.00
2018-03-08T16:36:41.206Z,9.93
2018-03-08T16:39:08.693Z,5.57
2018-03-08T16:41:36.234Z,5.60
2018-03-08T16:44:03.769Z,7.63
2018-03-08T16:46:31.275Z,6.90
2018-03-08T16:48:58.794Z,8.77
2018-03-08T16:51:26.349Z,7.07
2018-03-08T16:53:53.834Z,8.20
2018-03-08T16:56:21.348Z,9.50
2018-03-08T16:58:48.845Z,6.17
2018-03-08T17:01:16.373Z,6.13
2018-03-08T17:03:43.906Z,4.60
2018-03-08T17:06:11.473Z,6.40
2018-03-08T17:08:38.987Z,9.00
2018-03-08T17:11:06.519Z,8.70
2018-03-08T17:13:34.012Z,6.47
2018-03-08T17:16:01.597Z,5.97
2018-03-08T17:18:29.074Z,6.23
2018-03-08T17:20:56.586Z,7.43
2018-03-08T17:23:24.134Z,4.90
2018-03-08T17:25:51.668Z,6.87
2018-03-08T17:28:19.234Z,5.27
2018-03-08T17:30:46.732Z,4.90
2018-03-08T17:33:14.206Z,9.13
2018-03-08T17:35:41.722Z,4.80
2018-03-08T17:38:09.276Z,7.73
2018-03-08T17:40:36.753Z,4.47
2018-03-08T17:43:05.776Z,7.10
2018-03-08T17:45:33.549Z,4.27
2018-03-08T17:48:01.040Z,8.67
2018-03-08T17:50:28.584Z,8.43
2018-03-08T17:52:56.079Z,7.63
2018-03-08T17:55:23.560Z,9.13
2018-03-08T17:57:51.114Z,6.40
2018-03-08T18:00:18.624Z,5.93
2018-03-08T18:02:46.147Z,7.77
2018-03-08T18:05:13.636Z,7.63
2018-03-08T18:07:41.125Z,7.13
2018-03-08T18:10:08.602Z,5.40
2018-03-08T18:12:36.207Z,8.17
2018-03-08T18:15:03.731Z,4.80
2018-03-08T18:17:31.267Z,8.17
2018-03-08T18:19:58.785Z,6.83
2018-03-08T18:22:26.306Z,5.90
2018-03-08T18:24:53.778Z,6.27
2018-03-08T18:27:21.907Z,7.33
2018-03-08T18:29:49.430Z,10.97
2018-03-08T18:32:16.973Z,8.50
2018-03-08T18:34:44.491Z,4.93
2018-03-08T18:37:12.559Z,5.97
2018-03-08T18:39:40.117Z,6.67
2018-03-08T18:42:07.860Z,6.83
2018-03-08T18:44:35.339Z,7.20
2018-03-08T18:47:02.863Z,7.87
2018-03-08T18:49:30.385Z,7.80
2018-03-08T18:51:57.878Z,6.77
2018-03-08T18:54:25.379Z,6.80
2018-03-08T18:56:52.885Z,9.70
2018-03-08T18:59:20.370Z,8.20
2018-03-08T19:01:47.872Z,4.90
2018-03-08T19:04:15.374Z,8.00
2018-03-08T19:09:45.190Z,9.03
2018-03-08T19:12:12.700Z,7.90
2018-03-08T19:14:40.163Z,5.40
2018-03-08T19:17:07.695Z,5.90
2018-03-08T19:19:35.169Z,6.43
2018-03-08T19:22:02.689Z,5.37
2018-03-08T19:24:30.195Z,7.10
2018-03-08T19:26:57.702Z,7.57
2018-03-08T19:32:17.794Z,5.90
2018-03-08T19:37:37.933Z,2.57
2018-03-08T19:40:05.408Z,3.23
2018-03-08T19:51:22.112Z,1.90
2018-03-08T19:53:49.668Z,1.80
2018-03-08T19:56:17.167Z,1.93
2018-03-08T19:58:44.634Z,2.00
2018-03-08T20:01:12.230Z,1.93
2018-03-08T20:03:39.774Z,3.13
2018-03-08T20:06:07.246Z,2.73
2018-03-08T20:08:34.729Z,1.90
2018-03-08T20:11:02.397Z,3.60
2018-03-08T20:13:29.897Z,1.87
2018-03-08T20:15:57.564Z,5.33
2018-03-08T20:18:25.355Z,5.70
2018-03-08T20:20:53.190Z,3.80
2018-03-08T20:23:20.677Z,6.10
2018-03-08T20:25:48.210Z,4.63
2018-03-08T20:28:15.759Z,5.50
2018-03-08T20:30:43.300Z,4.27
2018-03-08T20:33:10.857Z,2.43
2018-03-08T20:35:38.374Z,1.93
2018-03-08T20:38:05.899Z,1.90
2018-03-08T20:40:33.470Z,2.17
2018-03-08T20:43:00.956Z,1.70
2018-03-08T20:45:28.432Z,1.80
2018-03-08T20:47:55.914Z,1.97
2018-03-08T20:50:23.414Z,1.67
2018-03-08T20:52:50.914Z,1.70
2018-03-08T20:55:18.412Z,1.90
2018-03-08T20:57:45.876Z,7.30
2018-03-08T21:00:14.164Z,4.13
2018-03-08T21:02:41.635Z,3.60
2018-03-08T21:05:09.137Z,2.00
2018-03-08T21:07:36.877Z,2.20
2018-03-08T21:10:04.412Z,1.80
2018-03-08T21:12:31.888Z,1.73
2018-03-08T21:14:59.440Z,4.70
2018-03-08T21:17:26.921Z,2.17
2018-03-08T21:19:54.456Z,2.60
2018-03-08T21:22:22.057Z,2.83
2018-03-08T21:24:49.558Z,3.00
2018-03-08T21:27:17.028Z,3.90
2018-03-08T21:29:44.482Z,6.83
2018-03-08T21:32:11.943Z,5.50
2018-03-08T21:34:39.410Z,7.43
2018-03-08T21:37:06.858Z,9.13
2018-03-08T21:39:35.695Z,10.70
2018-03-08T21:42:03.974Z,6.30
2018-03-08T21:44:31.461Z,8.40
2018-03-08T21:46:58.936Z,3.97
2018-03-08T21:49:26.468Z,4.17
2018-03-08T21:51:54.008Z,4.10
2018-03-08T21:54:21.528Z,4.47
2018-03-08T21:56:48.990Z,4.20
2018-03-08T21:59:16.458Z,3.90
2018-03-08T22:01:44.928Z,4.40
2018-03-08T22:04:12.503Z,6.77
2018-03-08T22:06:39.965Z,6.00
2018-03-08T22:09:10.259Z,4.93
2018-03-08T22:11:37.768Z,5.13
2018-03-08T22:14:05.287Z,6.67
2018-03-08T22:16:32.801Z,4.73
2018-03-08T22:19:00.347Z,6.20
2018-03-08T22:21:27.902Z,4.97
2018-03-08T22:23:55.398Z,6.23
2018-03-08T22:26:22.883Z,7.67
2018-03-08T22:28:50.381Z,14.27
2018-03-08T22:31:25.648Z,9.27
2018-03-08T22:33:53.158Z,8.30
2018-03-08T22:36:20.635Z,10.33
2018-03-08T22:38:48.091Z,8.07
2018-03-08T22:41:15.599Z,8.90
2018-03-08T22:43:43.092Z,9.87
2018-03-08T22:46:10.607Z,8.47
2018-03-08T22:48:38.115Z,8.07
2018-03-08T22:51:05.594Z,7.03
2018-03-08T22:53:33.084Z,9.90
2018-03-08T22:56:00.539Z,7.60
2018-03-08T22:58:28.035Z,9.80
2018-03-08T23:00:55.503Z,7.33
2018-03-08T23:03:28.584Z,7.97
2018-03-08T23:05:56.072Z,7.37
2018-03-08T23:08:23.537Z,9.90
2018-03-08T23:10:51.026Z,9.40
2018-03-08T23:13:18.524Z,9.60
2018-03-08T23:15:46.023Z,8.77
2018-03-08T23:18:13.521Z,10.00
2018-03-08T23:20:40.977Z,8.17
2018-03-08T23:23:08.455Z,9.33
2018-03-08T23:25:38.008Z,8.57
2018-03-08T23:28:09.459Z,8.07
2018-03-08T23:30:37.162Z,9.33
2018-03-08T23:33:04.970Z,9.50
2018-03-08T23:35:37.551Z,9.03
2018-03-08T23:38:05.024Z,10.13
2018-03-08T23:40:32.506Z,9.80
2018-03-08T23:42:59.996Z,8.67
2018-03-08T23:45:27.520Z,8.93
2018-03-08T23:47:55.021Z,11.07
2018-03-08T23:50:22.497Z,10.63
2018-03-08T23:52:49.970Z,13.90
2018-03-08T23:55:17.457Z,12.53
2018-03-08T23:57:44.937Z,10.27
